YMAV

Avalon Airport

Melbourne, Australia
TAF YMAV 200514Z 2006/2106 15014KT CAVOK FM200900 17008KT 9999 SCT015 FM201200 14006KT 9999 BKN012 BECMG 2022/2024 13008KT 9999 FEW015
Issued Valid From Valid To
Jan-20 @ 05:14 UTC
(6 hours ago)
Jan-20 @ 06:00 UTC
(5 hours ago)
Jan-21 @ 06:00 UTC
(in 19 hours)
Expired Click to View Jan-20 @ 06:00 to Jan-20 @ 09:00
TAF YMAV 200514Z 2006/2106 15014KT CAVOK
Wind Visibility Clouds Conditions
150° at 14 knots 10,000+ meters
  • No significant clouds
From Jan-20 @ 09:00 to Jan-20 @ 12:00
FM200900 17008KT 9999 SCT015
Wind Visibility Clouds
170° at 8 knots 10,000+ meters
  • Scattered at 1,500' AGL
From Jan-20 @ 12:00 to Jan-20 @ 22:00
FM201200 14006KT 9999 BKN012
Wind Visibility Clouds
140° at 6 knots 10,000+ meters
  • Broken at 1,200' AGL
Becoming Jan-20 @ 22:00 to Jan-21 @ 06:00
BECMG 2022/2024 13008KT 9999 FEW015
Wind Visibility Clouds
130° at 8 knots 10,000+ meters
  • Few at 1,500' AGL
TAF YMAV 200514Z 2006/2106 15014KT CAVOK FM200900 17008KT 9999 SCT015 FM201200 14006KT 9999 BKN012 BECMG 2022/2024 13008KT 9999 FEW015
Issued Jan-20 @ 05:14 UTC
(6 hours ago)
Valid From Jan-20 @ 06:00 UTC
(5 hours ago)
Valid To Jan-21 @ 06:00 UTC
(in 19 hours)
Jan-20 @ 06:00 - Jan-20 @ 09:00
Wind Visibility
150° at 14 knots 10,000+ meters
Clouds
  • No significant clouds
Conditions
From Jan-20 @ 09:00 - Jan-20 @ 12:00
Wind Visibility
170° at 8 knots 10,000+ meters
Clouds
  • Scattered at 1,500' AGL
From Jan-20 @ 12:00 - Jan-20 @ 22:00
Wind Visibility
140° at 6 knots 10,000+ meters
Clouds
  • Broken at 1,200' AGL
Becoming Jan-20 @ 22:00 - Jan-21 @ 06:00
Wind Visibility
130° at 8 knots 10,000+ meters
Clouds
  • Few at 1,500' AGL